sensor_id;sensor_type;location;lat;lon;timestamp;temperature;humidity
35690;DHT22;26977;44.830;-0.674;2023-02-04T00:00:26;2.70;99.90
35690;DHT22;26977;44.830;-0.674;2023-02-04T00:02:53;2.60;99.90
35690;DHT22;26977;44.830;-0.674;2023-02-04T00:05:19;2.60;99.90
35690;DHT22;26977;44.830;-0.674;2023-02-04T00:07:46;2.50;99.90
35690;DHT22;26977;44.830;-0.674;2023-02-04T00:10:12;2.50;99.90
35690;DHT22;26977;44.830;-0.674;2023-02-04T00:12:38;2.50;99.90
35690;DHT22;26977;44.830;-0.674;2023-02-04T00:15:14;2.40;99.90
35690;DHT22;26977;44.830;-0.674;2023-02-04T00:17:40;2.40;99.90
35690;DHT22;26977;44.830;-0.674;2023-02-04T00:20:06;2.40;99.90
35690;DHT22;26977;44.830;-0.674;2023-02-04T00:22:31;2.30;99.90
35690;DHT22;26977;44.830;-0.674;2023-02-04T00:24:57;2.20;99.90
35690;DHT22;26977;44.830;-0.674;2023-02-04T00:27:23;2.20;99.90
35690;DHT22;26977;44.830;-0.674;2023-02-04T00:29:49;2.20;99.90
35690;DHT22;26977;44.830;-0.674;2023-02-04T00:32:14;2.10;99.90
35690;DHT22;26977;44.830;-0.674;2023-02-04T00:34:40;2.10;99.90
35690;DHT22;26977;44.830;-0.674;2023-02-04T00:37:06;2.20;99.90
35690;DHT22;26977;44.830;-0.674;2023-02-04T00:39:32;2.20;99.90
35690;DHT22;26977;44.830;-0.674;2023-02-04T00:41:57;2.20;99.90
35690;DHT22;26977;44.830;-0.674;2023-02-04T00:44:23;2.20;99.90
35690;DHT22;26977;44.830;-0.674;2023-02-04T00:46:49;2.10;99.90
35690;DHT22;26977;44.830;-0.674;2023-02-04T00:49:14;2.10;99.90
35690;DHT22;26977;44.830;-0.674;2023-02-04T00:51:40;2.00;99.90
35690;DHT22;26977;44.830;-0.674;2023-02-04T00:54:13;2.00;99.90
35690;DHT22;26977;44.830;-0.674;2023-02-04T00:56:40;1.90;99.90
35690;DHT22;26977;44.830;-0.674;2023-02-04T00:59:06;1.90;99.90
35690;DHT22;26977;44.830;-0.674;2023-02-04T01:01:33;1.90;99.90
35690;DHT22;26977;44.830;-0.674;2023-02-04T01:03:59;2.00;99.90
35690;DHT22;26977;44.830;-0.674;2023-02-04T01:06:27;2.00;99.90
35690;DHT22;26977;44.830;-0.674;2023-02-04T01:08:55;2.00;99.90
35690;DHT22;26977;44.830;-0.674;2023-02-04T01:11:21;2.20;99.90
35690;DHT22;26977;44.830;-0.674;2023-02-04T01:13:47;2.20;99.90
35690;DHT22;26977;44.830;-0.674;2023-02-04T01:16:12;2.20;99.90
35690;DHT22;26977;44.830;-0.674;2023-02-04T01:18:38;2.20;99.90
35690;DHT22;26977;44.830;-0.674;2023-02-04T01:21:04;2.20;99.90
35690;DHT22;26977;44.830;-0.674;2023-02-04T01:23:30;2.20;99.90
35690;DHT22;26977;44.830;-0.674;2023-02-04T01:25:56;2.30;99.90
35690;DHT22;26977;44.830;-0.674;2023-02-04T01:28:22;2.30;99.90
35690;DHT22;26977;44.830;-0.674;2023-02-04T01:30:50;2.30;99.90
35690;DHT22;26977;44.830;-0.674;2023-02-04T01:33:16;2.30;99.90
35690;DHT22;26977;44.830;-0.674;2023-02-04T01:35:44;2.20;99.90
35690;DHT22;26977;44.830;-0.674;2023-02-04T01:38:10;2.10;99.90
35690;DHT22;26977;44.830;-0.674;2023-02-04T01:40:36;2.00;99.90
35690;DHT22;26977;44.830;-0.674;2023-02-04T01:43:02;1.90;99.90
35690;DHT22;26977;44.830;-0.674;2023-02-04T01:45:28;2.00;99.90
35690;DHT22;26977;44.830;-0.674;2023-02-04T01:47:55;2.00;99.90
35690;DHT22;26977;44.830;-0.674;2023-02-04T01:50:21;2.10;99.90
35690;DHT22;26977;44.830;-0.674;2023-02-04T01:52:47;2.00;99.90
35690;DHT22;26977;44.830;-0.674;2023-02-04T01:55:17;2.10;99.90
35690;DHT22;26977;44.830;-0.674;2023-02-04T01:57:43;2.00;99.90
35690;DHT22;26977;44.830;-0.674;2023-02-04T02:00:27;1.90;99.90
35690;DHT22;26977;44.830;-0.674;2023-02-04T02:02:54;1.90;99.90
35690;DHT22;26977;44.830;-0.674;2023-02-04T02:05:23;1.80;99.90
35690;DHT22;26977;44.830;-0.674;2023-02-04T02:07:52;1.80;99.90
35690;DHT22;26977;44.830;-0.674;2023-02-04T02:10:19;1.80;99.90
35690;DHT22;26977;44.830;-0.674;2023-02-04T02:12:46;1.60;99.90
35690;DHT22;26977;44.830;-0.674;2023-02-04T02:15:13;1.60;99.90
35690;DHT22;26977;44.830;-0.674;2023-02-04T02:17:39;1.50;99.90
35690;DHT22;26977;44.830;-0.674;2023-02-04T02:20:06;1.50;99.90
35690;DHT22;26977;44.830;-0.674;2023-02-04T02:25:13;1.50;99.90
35690;DHT22;26977;44.830;-0.674;2023-02-04T02:27:39;1.40;99.90
35690;DHT22;26977;44.830;-0.674;2023-02-04T02:30:09;1.30;99.90
35690;DHT22;26977;44.830;-0.674;2023-02-04T02:32:35;1.40;99.90
35690;DHT22;26977;44.830;-0.674;2023-02-04T02:35:02;1.40;99.90
35690;DHT22;26977;44.830;-0.674;2023-02-04T02:37:28;1.50;99.90
35690;DHT22;26977;44.830;-0.674;2023-02-04T02:39:55;1.40;99.90
35690;DHT22;26977;44.830;-0.674;2023-02-04T02:42:20;1.50;99.90
35690;DHT22;26977;44.830;-0.674;2023-02-04T02:44:47;1.60;99.90
35690;DHT22;26977;44.830;-0.674;2023-02-04T02:47:19;1.60;99.90
35690;DHT22;26977;44.830;-0.674;2023-02-04T02:49:50;1.50;99.90
35690;DHT22;26977;44.830;-0.674;2023-02-04T02:52:17;1.50;99.90
35690;DHT22;26977;44.830;-0.674;2023-02-04T02:54:43;1.50;99.90
35690;DHT22;26977;44.830;-0.674;2023-02-04T02:57:25;1.50;99.90
35690;DHT22;26977;44.830;-0.674;2023-02-04T02:59:53;1.60;99.90
35690;DHT22;26977;44.830;-0.674;2023-02-04T03:02:23;1.60;99.90
35690;DHT22;26977;44.830;-0.674;2023-02-04T03:04:53;1.60;99.90
35690;DHT22;26977;44.830;-0.674;2023-02-04T03:07:20;1.60;99.90
35690;DHT22;26977;44.830;-0.674;2023-02-04T03:09:47;1.60;99.90
35690;DHT22;26977;44.830;-0.674;2023-02-04T03:12:13;1.60;99.90
35690;DHT22;26977;44.830;-0.674;2023-02-04T03:14:39;1.60;99.90
35690;DHT22;26977;44.830;-0.674;2023-02-04T03:17:08;1.60;99.90
35690;DHT22;26977;44.830;-0.674;2023-02-04T03:19:37;1.60;99.90
35690;DHT22;26977;44.830;-0.674;2023-02-04T03:22:04;1.60;99.90
35690;DHT22;26977;44.830;-0.674;2023-02-04T03:24:34;1.50;99.90
35690;DHT22;26977;44.830;-0.674;2023-02-04T03:27:00;1.50;99.90
35690;DHT22;26977;44.830;-0.674;2023-02-04T03:29:26;1.50;99.90
35690;DHT22;26977;44.830;-0.674;2023-02-04T03:31:51;1.50;99.90
35690;DHT22;26977;44.830;-0.674;2023-02-04T03:34:20;1.40;99.90
35690;DHT22;26977;44.830;-0.674;2023-02-04T03:36:46;1.40;99.90
35690;DHT22;26977;44.830;-0.674;2023-02-04T03:39:12;1.40;99.90
35690;DHT22;26977;44.830;-0.674;2023-02-04T03:41:37;1.40;99.90
35690;DHT22;26977;44.830;-0.674;2023-02-04T03:44:03;1.40;99.90
35690;DHT22;26977;44.830;-0.674;2023-02-04T03:46:29;1.50;99.90
35690;DHT22;26977;44.830;-0.674;2023-02-04T03:48:55;1.50;99.90
35690;DHT22;26977;44.830;-0.674;2023-02-04T03:51:21;1.50;99.90
35690;DHT22;26977;44.830;-0.674;2023-02-04T03:53:49;1.50;99.90
35690;DHT22;26977;44.830;-0.674;2023-02-04T03:56:15;1.50;99.90
35690;DHT22;26977;44.830;-0.674;2023-02-04T03:58:41;1.50;99.90
35690;DHT22;26977;44.830;-0.674;2023-02-04T04:01:06;1.50;99.90
35690;DHT22;26977;44.830;-0.674;2023-02-04T04:03:32;1.50;99.90
35690;DHT22;26977;44.830;-0.674;2023-02-04T04:05:58;1.50;99.90
35690;DHT22;26977;44.830;-0.674;2023-02-04T04:08:24;1.40;99.90
35690;DHT22;26977;44.830;-0.674;2023-02-04T04:10:50;1.50;99.90
35690;DHT22;26977;44.830;-0.674;2023-02-04T04:13:15;1.40;99.90
35690;DHT22;26977;44.830;-0.674;2023-02-04T04:15:52;1.40;99.90
35690;DHT22;26977;44.830;-0.674;2023-02-04T04:18:18;1.30;99.90
35690;DHT22;26977;44.830;-0.674;2023-02-04T04:20:43;1.40;99.90
35690;DHT22;26977;44.830;-0.674;2023-02-04T04:23:09;1.40;99.90
35690;DHT22;26977;44.830;-0.674;2023-02-04T04:25:35;1.40;99.90
35690;DHT22;26977;44.830;-0.674;2023-02-04T04:28:00;1.40;99.90
35690;DHT22;26977;44.830;-0.674;2023-02-04T04:30:36;1.40;99.90
35690;DHT22;26977;44.830;-0.674;2023-02-04T04:33:02;1.40;99.90
35690;DHT22;26977;44.830;-0.674;2023-02-04T04:35:28;1.40;99.90
35690;DHT22;26977;44.830;-0.674;2023-02-04T04:37:53;1.50;99.90
35690;DHT22;26977;44.830;-0.674;2023-02-04T04:40:19;1.40;99.90
35690;DHT22;26977;44.830;-0.674;2023-02-04T04:42:45;1.40;99.90
35690;DHT22;26977;44.830;-0.674;2023-02-04T04:45:11;1.40;99.90
35690;DHT22;26977;44.830;-0.674;2023-02-04T04:47:39;1.30;99.90
35690;DHT22;26977;44.830;-0.674;2023-02-04T04:50:05;1.30;99.90
35690;DHT22;26977;44.830;-0.674;2023-02-04T04:52:34;1.40;99.90
35690;DHT22;26977;44.830;-0.674;2023-02-04T04:54:59;1.30;99.90
35690;DHT22;26977;44.830;-0.674;2023-02-04T04:57:25;1.30;99.90
35690;DHT22;26977;44.830;-0.674;2023-02-04T04:59:51;1.30;99.90
35690;DHT22;26977;44.830;-0.674;2023-02-04T05:02:16;1.30;99.90
35690;DHT22;26977;44.830;-0.674;2023-02-04T05:04:42;1.30;99.90
35690;DHT22;26977;44.830;-0.674;2023-02-04T05:07:08;1.40;99.90
35690;DHT22;26977;44.830;-0.674;2023-02-04T05:09:44;1.40;99.90
35690;DHT22;26977;44.830;-0.674;2023-02-04T05:12:09;1.40;99.90
35690;DHT22;26977;44.830;-0.674;2023-02-04T05:14:35;1.40;99.90
35690;DHT22;26977;44.830;-0.674;2023-02-04T05:17:01;1.40;99.90
35690;DHT22;26977;44.830;-0.674;2023-02-04T05:19:26;1.30;99.90
35690;DHT22;26977;44.830;-0.674;2023-02-04T05:21:52;1.30;99.90
35690;DHT22;26977;44.830;-0.674;2023-02-04T05:24:28;1.30;99.90
35690;DHT22;26977;44.830;-0.674;2023-02-04T05:26:56;1.40;99.90
35690;DHT22;26977;44.830;-0.674;2023-02-04T05:29:22;1.40;99.90
35690;DHT22;26977;44.830;-0.674;2023-02-04T05:31:48;1.40;99.90
35690;DHT22;26977;44.830;-0.674;2023-02-04T05:34:13;1.40;99.90
35690;DHT22;26977;44.830;-0.674;2023-02-04T05:36:39;1.30;99.90
35690;DHT22;26977;44.830;-0.674;2023-02-04T05:39:05;1.30;99.90
35690;DHT22;26977;44.830;-0.674;2023-02-04T05:41:31;1.20;99.90
35690;DHT22;26977;44.830;-0.674;2023-02-04T05:43:56;1.30;99.90
35690;DHT22;26977;44.830;-0.674;2023-02-04T05:46:22;1.20;99.90
35690;DHT22;26977;44.830;-0.674;2023-02-04T05:48:48;1.30;99.90
35690;DHT22;26977;44.830;-0.674;2023-02-04T05:51:14;1.30;99.90
35690;DHT22;26977;44.830;-0.674;2023-02-04T05:53:40;1.30;99.90
35690;DHT22;26977;44.830;-0.674;2023-02-04T05:56:05;1.40;99.90
35690;DHT22;26977;44.830;-0.674;2023-02-04T05:58:34;1.40;99.90
35690;DHT22;26977;44.830;-0.674;2023-02-04T06:01:00;1.30;99.90
35690;DHT22;26977;44.830;-0.674;2023-02-04T06:03:28;1.30;99.90
35690;DHT22;26977;44.830;-0.674;2023-02-04T06:05:53;1.20;99.90
35690;DHT22;26977;44.830;-0.674;2023-02-04T06:08:19;1.20;99.90
35690;DHT22;26977;44.830;-0.674;2023-02-04T06:10:45;1.20;99.90
35690;DHT22;26977;44.830;-0.674;2023-02-04T06:13:22;1.10;99.90
35690;DHT22;26977;44.830;-0.674;2023-02-04T06:15:48;1.10;99.90
35690;DHT22;26977;44.830;-0.674;2023-02-04T06:18:14;1.00;99.90
35690;DHT22;26977;44.830;-0.674;2023-02-04T06:20:39;1.00;99.90
35690;DHT22;26977;44.830;-0.674;2023-02-04T06:23:05;0.90;99.90
35690;DHT22;26977;44.830;-0.674;2023-02-04T06:25:31;0.90;99.90
35690;DHT22;26977;44.830;-0.674;2023-02-04T06:27:57;0.90;99.90
35690;DHT22;26977;44.830;-0.674;2023-02-04T06:30:23;1.00;99.90
35690;DHT22;26977;44.830;-0.674;2023-02-04T06:32:48;1.00;99.90
35690;DHT22;26977;44.830;-0.674;2023-02-04T06:35:14;1.10;99.90
35690;DHT22;26977;44.830;-0.674;2023-02-04T06:37:41;1.10;99.90
35690;DHT22;26977;44.830;-0.674;2023-02-04T06:40:07;1.00;99.90
35690;DHT22;26977;44.830;-0.674;2023-02-04T06:42:33;1.10;99.90
35690;DHT22;26977;44.830;-0.674;2023-02-04T06:44:59;1.10;99.90
35690;DHT22;26977;44.830;-0.674;2023-02-04T06:47:25;1.10;99.90
35690;DHT22;26977;44.830;-0.674;2023-02-04T06:49:50;1.20;99.90
35690;DHT22;26977;44.830;-0.674;2023-02-04T06:52:16;1.30;99.90
35690;DHT22;26977;44.830;-0.674;2023-02-04T06:54:44;1.30;99.90
35690;DHT22;26977;44.830;-0.674;2023-02-04T06:57:10;1.30;99.90
35690;DHT22;26977;44.830;-0.674;2023-02-04T06:59:38;1.30;99.90
35690;DHT22;26977;44.830;-0.674;2023-02-04T07:02:06;1.20;99.90
35690;DHT22;26977;44.830;-0.674;2023-02-04T07:04:33;1.30;99.90
35690;DHT22;26977;44.830;-0.674;2023-02-04T07:06:59;1.20;99.90
35690;DHT22;26977;44.830;-0.674;2023-02-04T07:09:25;1.20;99.90
35690;DHT22;26977;44.830;-0.674;2023-02-04T07:11:51;1.20;99.90
35690;DHT22;26977;44.830;-0.674;2023-02-04T07:14:20;1.20;99.90
35690;DHT22;26977;44.830;-0.674;2023-02-04T07:16:46;1.30;99.90
35690;DHT22;26977;44.830;-0.674;2023-02-04T07:19:11;1.30;99.90
35690;DHT22;26977;44.830;-0.674;2023-02-04T07:21:37;1.30;99.90
35690;DHT22;26977;44.830;-0.674;2023-02-04T07:24:02;1.40;99.90
35690;DHT22;26977;44.830;-0.674;2023-02-04T07:26:28;1.40;99.90
35690;DHT22;26977;44.830;-0.674;2023-02-04T07:28:54;1.40;99.90
35690;DHT22;26977;44.830;-0.674;2023-02-04T07:31:20;1.40;99.90
35690;DHT22;26977;44.830;-0.674;2023-02-04T07:33:45;1.50;99.90
35690;DHT22;26977;44.830;-0.674;2023-02-04T07:36:11;1.50;99.90
35690;DHT22;26977;44.830;-0.674;2023-02-04T07:38:37;1.50;99.90
35690;DHT22;26977;44.830;-0.674;2023-02-04T07:41:03;1.50;99.90
35690;DHT22;26977;44.830;-0.674;2023-02-04T07:43:28;1.40;99.90
35690;DHT22;26977;44.830;-0.674;2023-02-04T07:45:54;1.30;99.90
35690;DHT22;26977;44.830;-0.674;2023-02-04T07:48:23;1.30;99.90
35690;DHT22;26977;44.830;-0.674;2023-02-04T07:50:48;1.40;99.90
35690;DHT22;26977;44.830;-0.674;2023-02-04T07:53:14;1.40;99.90
35690;DHT22;26977;44.830;-0.674;2023-02-04T07:55:40;1.40;99.90
35690;DHT22;26977;44.830;-0.674;2023-02-04T07:58:06;1.50;99.90
35690;DHT22;26977;44.830;-0.674;2023-02-04T08:00:32;1.50;99.90
35690;DHT22;26977;44.830;-0.674;2023-02-04T08:02:57;1.50;99.90
35690;DHT22;26977;44.830;-0.674;2023-02-04T08:05:24;1.50;99.90
35690;DHT22;26977;44.830;-0.674;2023-02-04T08:07:49;1.60;99.90
35690;DHT22;26977;44.830;-0.674;2023-02-04T08:10:15;1.60;99.90
35690;DHT22;26977;44.830;-0.674;2023-02-04T08:12:41;1.70;99.90
35690;DHT22;26977;44.830;-0.674;2023-02-04T08:15:07;1.70;99.90
35690;DHT22;26977;44.830;-0.674;2023-02-04T08:17:33;1.80;99.90
35690;DHT22;26977;44.830;-0.674;2023-02-04T08:19:59;1.80;99.90
35690;DHT22;26977;44.830;-0.674;2023-02-04T08:22:34;1.80;99.90
35690;DHT22;26977;44.830;-0.674;2023-02-04T08:25:00;1.90;99.90
35690;DHT22;26977;44.830;-0.674;2023-02-04T08:27:26;2.00;99.90
35690;DHT22;26977;44.830;-0.674;2023-02-04T08:29:52;2.10;99.90
35690;DHT22;26977;44.830;-0.674;2023-02-04T08:32:19;2.20;99.90
35690;DHT22;26977;44.830;-0.674;2023-02-04T08:34:56;2.30;99.90
35690;DHT22;26977;44.830;-0.674;2023-02-04T08:37:22;2.40;99.90
35690;DHT22;26977;44.830;-0.674;2023-02-04T08:39:47;2.50;99.90
35690;DHT22;26977;44.830;-0.674;2023-02-04T08:42:14;2.60;99.90
35690;DHT22;26977;44.830;-0.674;2023-02-04T08:44:40;2.70;99.90
35690;DHT22;26977;44.830;-0.674;2023-02-04T08:47:06;2.80;99.90
35690;DHT22;26977;44.830;-0.674;2023-02-04T08:49:32;2.80;99.90
35690;DHT22;26977;44.830;-0.674;2023-02-04T08:51:57;2.90;99.90
35690;DHT22;26977;44.830;-0.674;2023-02-04T08:54:23;2.90;99.90
35690;DHT22;26977;44.830;-0.674;2023-02-04T08:56:50;3.00;99.90
35690;DHT22;26977;44.830;-0.674;2023-02-04T08:59:16;3.00;99.90
35690;DHT22;26977;44.830;-0.674;2023-02-04T09:01:42;3.10;99.90
35690;DHT22;26977;44.830;-0.674;2023-02-04T09:04:08;3.30;99.90
35690;DHT22;26977;44.830;-0.674;2023-02-04T09:06:33;3.40;99.90
35690;DHT22;26977;44.830;-0.674;2023-02-04T09:08:59;3.50;99.90
35690;DHT22;26977;44.830;-0.674;2023-02-04T09:11:24;3.60;99.90
35690;DHT22;26977;44.830;-0.674;2023-02-04T09:13:51;3.80;99.90
35690;DHT22;26977;44.830;-0.674;2023-02-04T09:16:16;3.90;99.90
35690;DHT22;26977;44.830;-0.674;2023-02-04T09:18:43;4.10;99.90
35690;DHT22;26977;44.830;-0.674;2023-02-04T09:21:08;4.30;99.90
35690;DHT22;26977;44.830;-0.674;2023-02-04T09:23:34;4.40;99.90
35690;DHT22;26977;44.830;-0.674;2023-02-04T09:26:00;4.50;99.90
35690;DHT22;26977;44.830;-0.674;2023-02-04T09:28:26;4.60;99.90
35690;DHT22;26977;44.830;-0.674;2023-02-04T09:31:02;4.70;99.90
35690;DHT22;26977;44.830;-0.674;2023-02-04T09:33:27;4.90;99.90
35690;DHT22;26977;44.830;-0.674;2023-02-04T09:35:53;5.00;99.90
35690;DHT22;26977;44.830;-0.674;2023-02-04T09:38:19;5.20;99.90
35690;DHT22;26977;44.830;-0.674;2023-02-04T09:41:22;5.30;99.90
35690;DHT22;26977;44.830;-0.674;2023-02-04T09:43:43;5.50;99.90
35690;DHT22;26977;44.830;-0.674;2023-02-04T09:46:19;5.70;99.90
35690;DHT22;26977;44.830;-0.674;2023-02-04T09:48:46;5.70;99.90
35690;DHT22;26977;44.830;-0.674;2023-02-04T09:51:15;5.90;99.90
35690;DHT22;26977;44.830;-0.674;2023-02-04T09:53:41;6.00;99.90
35690;DHT22;26977;44.830;-0.674;2023-02-04T09:56:09;6.20;99.90
35690;DHT22;26977;44.830;-0.674;2023-02-04T09:58:36;6.30;99.90
35690;DHT22;26977;44.830;-0.674;2023-02-04T10:01:15;6.30;99.90
35690;DHT22;26977;44.830;-0.674;2023-02-04T10:03:42;6.40;99.90
35690;DHT22;26977;44.830;-0.674;2023-02-04T10:06:15;6.50;99.90
35690;DHT22;26977;44.830;-0.674;2023-02-04T10:08:43;6.50;99.90
35690;DHT22;26977;44.830;-0.674;2023-02-04T10:11:10;6.60;99.90
35690;DHT22;26977;44.830;-0.674;2023-02-04T10:13:56;6.60;99.90
35690;DHT22;26977;44.830;-0.674;2023-02-04T10:16:29;6.80;99.90
35690;DHT22;26977;44.830;-0.674;2023-02-04T10:19:00;7.00;99.90
35690;DHT22;26977;44.830;-0.674;2023-02-04T10:21:32;7.10;99.90
35690;DHT22;26977;44.830;-0.674;2023-02-04T10:24:01;7.20;99.90
35690;DHT22;26977;44.830;-0.674;2023-02-04T10:26:29;7.30;99.90
35690;DHT22;26977;44.830;-0.674;2023-02-04T10:29:04;7.50;99.90
35690;DHT22;26977;44.830;-0.674;2023-02-04T10:31:35;7.70;99.90
35690;DHT22;26977;44.830;-0.674;2023-02-04T10:34:06;7.80;99.90
35690;DHT22;26977;44.830;-0.674;2023-02-04T10:36:33;7.80;99.90
35690;DHT22;26977;44.830;-0.674;2023-02-04T10:39:20;8.00;99.90
35690;DHT22;26977;44.830;-0.674;2023-02-04T10:41:54;8.10;99.90
35690;DHT22;26977;44.830;-0.674;2023-02-04T10:44:34;8.20;99.90
35690;DHT22;26977;44.830;-0.674;2023-02-04T10:47:04;8.30;99.90
35690;DHT22;26977;44.830;-0.674;2023-02-04T10:49:31;8.40;99.90
35690;DHT22;26977;44.830;-0.674;2023-02-04T10:51:57;8.50;99.90
35690;DHT22;26977;44.830;-0.674;2023-02-04T10:54:26;8.60;99.90
35690;DHT22;26977;44.830;-0.674;2023-02-04T10:59:40;8.70;99.90
35690;DHT22;26977;44.830;-0.674;2023-02-04T11:05:00;8.70;99.90
35690;DHT22;26977;44.830;-0.674;2023-02-04T11:07:26;8.60;99.90
35690;DHT22;26977;44.830;-0.674;2023-02-04T11:09:53;8.70;99.90
35690;DHT22;26977;44.830;-0.674;2023-02-04T11:12:37;8.90;99.90
35690;DHT22;26977;44.830;-0.674;2023-02-04T11:15:04;9.00;99.90
35690;DHT22;26977;44.830;-0.674;2023-02-04T11:17:32;9.00;99.90
35690;DHT22;26977;44.830;-0.674;2023-02-04T11:19:59;9.00;99.90
35690;DHT22;26977;44.830;-0.674;2023-02-04T11:22:45;9.10;99.90
35690;DHT22;26977;44.830;-0.674;2023-02-04T11:25:34;9.20;99.90
35690;DHT22;26977;44.830;-0.674;2023-02-04T11:28:12;9.10;99.90
35690;DHT22;26977;44.830;-0.674;2023-02-04T11:30:38;9.20;99.90
35690;DHT22;26977;44.830;-0.674;2023-02-04T11:33:18;9.30;99.90
35690;DHT22;26977;44.830;-0.674;2023-02-04T11:36:02;9.50;99.90
35690;DHT22;26977;44.830;-0.674;2023-02-04T11:38:30;9.60;99.90
35690;DHT22;26977;44.830;-0.674;2023-02-04T11:40:57;9.50;99.90
35690;DHT22;26977;44.830;-0.674;2023-02-04T11:43:25;9.50;99.90
35690;DHT22;26977;44.830;-0.674;2023-02-04T11:46:09;9.60;99.90
35690;DHT22;26977;44.830;-0.674;2023-02-04T11:48:37;9.60;99.90
35690;DHT22;26977;44.830;-0.674;2023-02-04T11:51:11;9.60;99.90
35690;DHT22;26977;44.830;-0.674;2023-02-04T11:53:39;9.80;99.90
35690;DHT22;26977;44.830;-0.674;2023-02-04T11:56:05;9.70;99.90
35690;DHT22;26977;44.830;-0.674;2023-02-04T11:58:33;9.70;99.90
35690;DHT22;26977;44.830;-0.674;2023-02-04T12:01:03;9.60;99.90
35690;DHT22;26977;44.830;-0.674;2023-02-04T12:03:31;9.70;99.90
35690;DHT22;26977;44.830;-0.674;2023-02-04T12:05:59;9.80;99.90
35690;DHT22;26977;44.830;-0.674;2023-02-04T12:11:05;9.80;99.90
35690;DHT22;26977;44.830;-0.674;2023-02-04T12:13:32;9.80;99.90
35690;DHT22;26977;44.830;-0.674;2023-02-04T12:16:04;9.80;99.90
35690;DHT22;26977;44.830;-0.674;2023-02-04T12:18:32;9.90;99.90
35690;DHT22;26977;44.830;-0.674;2023-02-04T12:20:59;10.00;99.90
35690;DHT22;26977;44.830;-0.674;2023-02-04T12:23:28;10.20;99.90
35690;DHT22;26977;44.830;-0.674;2023-02-04T12:25:54;10.30;99.90
35690;DHT22;26977;44.830;-0.674;2023-02-04T12:28:20;10.30;99.90
35690;DHT22;26977;44.830;-0.674;2023-02-04T12:30:46;10.30;99.90
35690;DHT22;26977;44.830;-0.674;2023-02-04T12:33:12;10.40;99.90
35690;DHT22;26977;44.830;-0.674;2023-02-04T12:35:38;10.40;99.90
35690;DHT22;26977;44.830;-0.674;2023-02-04T12:38:04;10.20;99.90
35690;DHT22;26977;44.830;-0.674;2023-02-04T12:40:30;10.30;99.90
35690;DHT22;26977;44.830;-0.674;2023-02-04T12:42:56;10.40;99.90
35690;DHT22;26977;44.830;-0.674;2023-02-04T12:45:21;10.50;99.90
35690;DHT22;26977;44.830;-0.674;2023-02-04T12:47:47;10.40;99.90
35690;DHT22;26977;44.830;-0.674;2023-02-04T12:50:15;10.40;99.90
35690;DHT22;26977;44.830;-0.674;2023-02-04T12:52:50;10.40;99.90
35690;DHT22;26977;44.830;-0.674;2023-02-04T12:55:16;10.50;99.90
35690;DHT22;26977;44.830;-0.674;2023-02-04T12:57:45;10.50;99.90
35690;DHT22;26977;44.830;-0.674;2023-02-04T13:00:12;10.60;99.90
35690;DHT22;26977;44.830;-0.674;2023-02-04T13:02:38;10.70;99.90
35690;DHT22;26977;44.830;-0.674;2023-02-04T13:05:04;10.70;99.90
35690;DHT22;26977;44.830;-0.674;2023-02-04T13:07:30;10.70;99.90
35690;DHT22;26977;44.830;-0.674;2023-02-04T13:09:58;10.70;99.90
35690;DHT22;26977;44.830;-0.674;2023-02-04T13:12:24;10.70;99.90
35690;DHT22;26977;44.830;-0.674;2023-02-04T13:14:49;10.60;99.90
35690;DHT22;26977;44.830;-0.674;2023-02-04T13:17:16;10.60;99.90
35690;DHT22;26977;44.830;-0.674;2023-02-04T13:19:52;10.70;99.90
35690;DHT22;26977;44.830;-0.674;2023-02-04T13:22:18;10.80;99.90
35690;DHT22;26977;44.830;-0.674;2023-02-04T13:24:44;11.00;99.90
35690;DHT22;26977;44.830;-0.674;2023-02-04T13:27:20;11.00;99.90
35690;DHT22;26977;44.830;-0.674;2023-02-04T13:29:46;11.00;99.90
35690;DHT22;26977;44.830;-0.674;2023-02-04T13:32:12;10.80;99.90
35690;DHT22;26977;44.830;-0.674;2023-02-04T13:34:37;10.80;99.90
35690;DHT22;26977;44.830;-0.674;2023-02-04T13:37:03;10.80;99.90
35690;DHT22;26977;44.830;-0.674;2023-02-04T13:39:29;10.80;99.90
35690;DHT22;26977;44.830;-0.674;2023-02-04T13:41:55;10.70;99.90
35690;DHT22;26977;44.830;-0.674;2023-02-04T13:44:20;10.70;99.90
35690;DHT22;26977;44.830;-0.674;2023-02-04T13:46:46;10.70;99.90
35690;DHT22;26977;44.830;-0.674;2023-02-04T13:49:12;10.60;99.90
35690;DHT22;26977;44.830;-0.674;2023-02-04T13:51:37;10.50;99.90
35690;DHT22;26977;44.830;-0.674;2023-02-04T13:54:03;10.60;99.90
35690;DHT22;26977;44.830;-0.674;2023-02-04T13:56:29;10.50;99.90
35690;DHT22;26977;44.830;-0.674;2023-02-04T13:58:57;10.30;99.90
35690;DHT22;26977;44.830;-0.674;2023-02-04T14:01:23;10.20;99.90
35690;DHT22;26977;44.830;-0.674;2023-02-04T14:03:49;10.20;99.90
35690;DHT22;26977;44.830;-0.674;2023-02-04T14:06:14;10.20;99.90
35690;DHT22;26977;44.830;-0.674;2023-02-04T14:08:40;10.20;99.90
35690;DHT22;26977;44.830;-0.674;2023-02-04T14:11:06;10.20;99.90
35690;DHT22;26977;44.830;-0.674;2023-02-04T14:13:32;10.10;99.90
35690;DHT22;26977;44.830;-0.674;2023-02-04T14:15:58;10.00;99.90
35690;DHT22;26977;44.830;-0.674;2023-02-04T14:18:24;10.00;99.90
35690;DHT22;26977;44.830;-0.674;2023-02-04T14:20:49;10.00;99.90
35690;DHT22;26977;44.830;-0.674;2023-02-04T14:23:15;10.00;99.90
35690;DHT22;26977;44.830;-0.674;2023-02-04T14:25:41;10.00;99.90
35690;DHT22;26977;44.830;-0.674;2023-02-04T14:28:06;9.90;99.90
35690;DHT22;26977;44.830;-0.674;2023-02-04T14:30:32;9.90;99.90
35690;DHT22;26977;44.830;-0.674;2023-02-04T14:32:58;9.90;99.90
35690;DHT22;26977;44.830;-0.674;2023-02-04T14:35:25;10.00;99.90
35690;DHT22;26977;44.830;-0.674;2023-02-04T14:37:50;10.00;99.90
35690;DHT22;26977;44.830;-0.674;2023-02-04T14:40:17;9.90;99.90
35690;DHT22;26977;44.830;-0.674;2023-02-04T14:42:43;9.90;99.90
35690;DHT22;26977;44.830;-0.674;2023-02-04T14:45:11;9.90;99.90
35690;DHT22;26977;44.830;-0.674;2023-02-04T14:47:38;9.90;99.90
35690;DHT22;26977;44.830;-0.674;2023-02-04T14:50:06;9.90;99.90
35690;DHT22;26977;44.830;-0.674;2023-02-04T14:52:32;9.90;99.90
35690;DHT22;26977;44.830;-0.674;2023-02-04T14:54:57;9.90;99.90
35690;DHT22;26977;44.830;-0.674;2023-02-04T14:57:24;9.90;99.90
35690;DHT22;26977;44.830;-0.674;2023-02-04T14:59:50;9.90;99.90
35690;DHT22;26977;44.830;-0.674;2023-02-04T15:02:16;9.90;99.90
35690;DHT22;26977;44.830;-0.674;2023-02-04T15:04:42;9.90;99.90
35690;DHT22;26977;44.830;-0.674;2023-02-04T15:07:09;9.90;99.90
35690;DHT22;26977;44.830;-0.674;2023-02-04T15:09:36;9.90;99.90
35690;DHT22;26977;44.830;-0.674;2023-02-04T15:12:03;9.90;99.90
35690;DHT22;26977;44.830;-0.674;2023-02-04T15:14:29;9.80;99.90
35690;DHT22;26977;44.830;-0.674;2023-02-04T15:16:55;9.80;99.90
35690;DHT22;26977;44.830;-0.674;2023-02-04T15:19:20;9.80;99.90
35690;DHT22;26977;44.830;-0.674;2023-02-04T15:21:48;9.80;99.90
35690;DHT22;26977;44.830;-0.674;2023-02-04T15:24:13;9.80;99.90
35690;DHT22;26977;44.830;-0.674;2023-02-04T15:26:39;9.80;99.90
35690;DHT22;26977;44.830;-0.674;2023-02-04T15:29:05;9.80;99.90
35690;DHT22;26977;44.830;-0.674;2023-02-04T15:31:31;9.70;99.90
35690;DHT22;26977;44.830;-0.674;2023-02-04T15:33:57;9.70;99.90
35690;DHT22;26977;44.830;-0.674;2023-02-04T15:36:23;9.70;99.90
35690;DHT22;26977;44.830;-0.674;2023-02-04T15:38:48;9.70;99.90